createdAt,value
2023-01-13T00:01:12.732Z,-4.22
2023-01-13T00:03:39.656Z,-4.23
2023-01-13T00:06:07.099Z,-4.20
2023-01-13T00:08:34.019Z,-4.18
2023-01-13T00:11:00.666Z,-4.21
2023-01-13T00:13:27.258Z,-4.21
2023-01-13T00:16:01.964Z,-4.19
2023-01-13T00:18:28.857Z,-4.21
2023-01-13T00:21:03.654Z,-4.19
2023-01-13T00:23:32.211Z,-4.15
2023-01-13T00:26:02.215Z,-4.14
2023-01-13T00:28:29.149Z,-4.16
2023-01-13T00:30:58.797Z,-4.16
2023-01-13T00:33:25.928Z,-4.16
2023-01-13T00:36:00.504Z,-4.16
2023-01-13T00:38:27.264Z,-4.14
2023-01-13T00:41:08.804Z,-4.12
2023-01-13T00:43:37.314Z,-4.12
2023-01-13T00:46:05.867Z,-4.13
2023-01-13T00:48:33.212Z,-4.13
2023-01-13T00:51:05.283Z,-4.09
2023-01-13T00:53:39.008Z,-4.10
2023-01-13T00:56:09.683Z,-4.11
2023-01-13T00:58:36.626Z,-4.06
2023-01-13T01:01:05.975Z,-4.07
2023-01-13T01:03:32.713Z,-4.08
2023-01-13T01:06:09.133Z,-4.07
2023-01-13T01:08:35.984Z,-4.09
2023-01-13T01:11:08.619Z,-4.09
2023-01-13T01:13:36.215Z,-4.08
2023-01-13T01:16:15.423Z,-4.07
2023-01-13T01:18:45.283Z,-4.05
2023-01-13T01:21:12.829Z,-4.05
2023-01-13T01:23:40.623Z,-4.03
2023-01-13T01:26:13.722Z,-4.02
2023-01-13T01:28:40.858Z,-4.01
2023-01-13T01:31:14.379Z,-3.99
2023-01-13T01:33:41.224Z,-4.00
2023-01-13T01:36:09.272Z,-3.98
2023-01-13T01:38:35.880Z,-3.98
2023-01-13T01:41:02.809Z,-3.98
2023-01-13T01:44:04.365Z,-3.96
2023-01-13T01:46:33.652Z,-3.97
2023-01-13T01:49:08.477Z,-3.95
2023-01-13T01:51:49.979Z,-3.98
2023-01-13T01:54:24.360Z,-3.99
2023-01-13T01:56:51.700Z,-3.97
2023-01-13T01:59:18.664Z,-3.97
2023-01-13T02:01:45.543Z,-3.97
2023-01-13T02:04:21.821Z,-3.98
2023-01-13T02:06:50.146Z,-3.98
2023-01-13T02:09:17.452Z,-3.96
2023-01-13T02:12:02.686Z,-3.98
2023-01-13T02:14:30.640Z,-3.97
2023-01-13T02:17:26.141Z,-3.94
2023-01-13T02:19:58.584Z,-3.96
2023-01-13T02:22:35.732Z,-3.95
2023-01-13T02:25:08.013Z,-3.95
2023-01-13T02:27:49.025Z,-3.98
2023-01-13T02:30:55.752Z,-3.96
2023-01-13T02:33:47.250Z,-3.92
2023-01-13T02:36:33.321Z,-3.94
2023-01-13T02:39:41.680Z,-3.94
2023-01-13T02:42:36.667Z,-3.94
2023-01-13T02:45:21.363Z,-3.93
2023-01-13T02:47:50.277Z,-3.92
2023-01-13T02:50:22.210Z,-3.91
2023-01-13T02:53:03.912Z,-3.89
2023-01-13T02:55:36.006Z,-3.87
2023-01-13T02:58:06.243Z,-3.86
2023-01-13T03:00:33.666Z,-3.86
2023-01-13T03:03:01.584Z,-3.84
2023-01-13T03:05:30.159Z,-3.85
2023-01-13T03:08:02.632Z,-3.85
2023-01-13T03:10:36.224Z,-3.85
2023-01-13T03:13:27.405Z,-3.83
2023-01-13T03:15:56.675Z,-3.82
2023-01-13T03:18:44.980Z,-3.81
2023-01-13T03:21:19.758Z,-3.80
2023-01-13T03:24:03.634Z,-3.82
2023-01-13T03:26:45.209Z,-3.76
2023-01-13T03:29:26.101Z,-3.77
2023-01-13T03:31:59.278Z,-3.78
2023-01-13T03:34:34.324Z,-3.78
2023-01-13T03:37:05.491Z,-3.77
2023-01-13T03:39:36.267Z,-3.76
2023-01-13T03:42:08.819Z,-3.78
2023-01-13T03:44:57.489Z,-3.73
2023-01-13T03:47:52.510Z,-3.73
2023-01-13T03:50:27.982Z,-3.73
2023-01-13T03:53:19.637Z,-3.72
2023-01-13T03:55:50.816Z,-3.73
2023-01-13T03:58:25.071Z,-3.71
2023-01-13T04:00:59.929Z,-3.71
2023-01-13T04:03:41.460Z,-3.68
2023-01-13T04:06:17.410Z,-3.69
2023-01-13T04:08:53.098Z,-3.68
2023-01-13T04:11:29.659Z,-3.68
2023-01-13T04:13:58.638Z,-3.66
2023-01-13T04:16:25.709Z,-3.66
2023-01-13T04:18:52.273Z,-3.64
2023-01-13T04:22:15.920Z,-3.64
2023-01-13T04:24:42.553Z,-3.67
2023-01-13T04:27:09.070Z,-3.66
2023-01-13T04:29:35.627Z,-3.68
2023-01-13T04:32:02.236Z,-3.64
2023-01-13T04:34:28.766Z,-3.62
2023-01-13T04:36:55.292Z,-3.63
2023-01-13T04:39:21.860Z,-3.63
2023-01-13T04:42:01.317Z,-3.59
2023-01-13T04:44:28.658Z,-3.58
2023-01-13T04:46:55.220Z,-3.58
2023-01-13T04:49:21.776Z,-3.60
2023-01-13T04:51:48.379Z,-3.66
2023-01-13T04:54:16.245Z,-3.65
2023-01-13T04:56:42.826Z,-3.60
2023-01-13T04:59:10.935Z,-3.64
2023-01-13T05:01:38.026Z,-3.63
2023-01-13T05:04:05.577Z,-3.60
2023-01-13T05:06:32.261Z,-3.60
2023-01-13T05:08:59.079Z,-3.61
2023-01-13T05:11:44.291Z,-3.61
2023-01-13T05:14:29.693Z,-3.57
2023-01-13T05:17:03.593Z,-3.59
2023-01-13T05:19:40.723Z,-3.63
2023-01-13T05:22:26.119Z,-3.55
2023-01-13T05:25:10.756Z,-3.59
2023-01-13T05:27:37.425Z,-3.60
2023-01-13T05:30:04.988Z,-3.56
2023-01-13T05:32:31.635Z,-3.53
2023-01-13T05:34:58.223Z,-3.53
2023-01-13T05:37:25.895Z,-3.53
2023-01-13T05:40:11.322Z,-3.54
2023-01-13T05:42:57.395Z,-3.54
2023-01-13T05:45:24.692Z,-3.58
2023-01-13T05:47:51.479Z,-3.53
2023-01-13T05:50:18.049Z,-3.52
2023-01-13T05:52:44.707Z,-3.53
2023-01-13T05:55:12.456Z,-3.57
2023-01-13T05:57:38.981Z,-3.51
2023-01-13T06:00:06.059Z,-3.50
2023-01-13T06:02:32.848Z,-3.50
2023-01-13T06:04:59.389Z,-3.47
2023-01-13T06:07:25.957Z,-3.48
2023-01-13T06:09:52.517Z,-3.45
2023-01-13T06:12:19.077Z,-3.44
2023-01-13T06:14:45.635Z,-3.43
2023-01-13T06:17:14.946Z,-3.40
2023-01-13T06:19:41.940Z,-3.38
2023-01-13T06:22:35.694Z,-3.38
2023-01-13T06:25:03.299Z,-3.36
2023-01-13T06:27:30.646Z,-3.35
2023-01-13T06:29:57.362Z,-3.34
2023-01-13T06:32:31.485Z,-3.33
2023-01-13T06:35:06.337Z,-3.32
2023-01-13T06:37:34.634Z,-3.35
2023-01-13T06:40:03.970Z,-3.34
2023-01-13T06:42:54.312Z,-3.31
2023-01-13T06:45:22.592Z,-3.29
2023-01-13T06:47:49.670Z,-3.31
2023-01-13T06:50:18.719Z,-3.32
2023-01-13T06:52:45.279Z,-3.24
2023-01-13T06:55:12.252Z,-3.25
2023-01-13T06:57:55.771Z,-3.23
2023-01-13T07:00:24.155Z,-3.22
2023-01-13T07:02:51.019Z,-3.19
2023-01-13T07:05:19.117Z,-3.19
2023-01-13T07:07:45.820Z,-3.15
2023-01-13T07:10:22.257Z,-3.15
2023-01-13T07:13:08.260Z,-3.13
2023-01-13T07:15:35.497Z,-3.12
2023-01-13T07:18:02.570Z,-3.09
2023-01-13T07:20:30.393Z,-3.07
2023-01-13T07:22:57.607Z,-3.06
2023-01-13T07:25:24.155Z,-3.09
2023-01-13T07:27:50.694Z,-3.05
2023-01-13T07:30:17.686Z,-3.05
2023-01-13T07:32:44.221Z,-2.97
2023-01-13T07:35:10.793Z,-2.99
2023-01-13T07:37:39.422Z,-2.99
2023-01-13T07:40:06.805Z,-3.03
2023-01-13T07:42:52.041Z,-3.00
2023-01-13T07:45:18.583Z,-2.97
2023-01-13T07:47:45.192Z,-2.99
2023-01-13T07:50:11.789Z,-2.97
2023-01-13T07:52:38.337Z,-2.96
2023-01-13T07:55:05.229Z,-2.92
2023-01-13T07:57:31.769Z,-2.85
2023-01-13T07:59:58.335Z,-2.83
2023-01-13T08:02:25.214Z,-2.77
2023-01-13T08:04:51.889Z,-2.75
2023-01-13T08:07:18.502Z,-2.69
2023-01-13T08:09:45.118Z,-2.67
2023-01-13T08:12:30.070Z,-2.63
2023-01-13T08:14:56.658Z,-2.57
2023-01-13T08:17:23.242Z,-2.56
2023-01-13T08:19:50.049Z,-2.52
2023-01-13T08:22:16.649Z,-2.47
2023-01-13T08:24:43.234Z,-2.46
2023-01-13T08:27:09.821Z,-2.42
2023-01-13T08:29:36.425Z,-2.36
2023-01-13T08:32:03.086Z,-2.32
2023-01-13T08:34:29.736Z,-2.30
2023-01-13T08:36:56.382Z,-2.32
2023-01-13T08:39:24.557Z,-2.27
2023-01-13T08:41:58.456Z,-2.26
2023-01-13T08:44:29.909Z,-2.22
2023-01-13T12:38:53.690Z,-1.95
2023-01-13T12:41:37.431Z,-1.88
2023-01-13T12:44:20.348Z,-1.81
2023-01-13T12:46:56.089Z,-1.74
2023-01-13T12:49:33.861Z,-1.67
2023-01-13T12:52:09.836Z,-1.63
2023-01-13T12:54:39.297Z,-1.60
2023-01-13T12:57:29.373Z,-1.60
2023-01-13T13:00:05.011Z,-1.60
2023-01-13T13:02:37.656Z,-1.61
2023-01-13T13:05:24.137Z,-1.61
2023-01-13T13:08:06.034Z,-1.61
2023-01-13T13:10:37.545Z,-1.62
2023-01-13T13:13:20.307Z,-1.62
2023-01-13T13:15:51.687Z,-1.59
2023-01-13T13:18:18.294Z,-1.60
2023-01-13T13:21:05.527Z,-1.60
2023-01-13T13:23:45.834Z,-1.62
2023-01-13T13:26:20.645Z,-1.63
2023-01-13T13:29:08.644Z,-1.63
2023-01-13T13:32:14.880Z,-1.64
2023-01-13T13:34:55.485Z,-1.64
2023-01-13T13:38:09.700Z,-1.62
2023-01-13T13:41:01.135Z,-1.64
2023-01-13T13:43:49.782Z,-1.64
2023-01-13T13:46:49.068Z,-1.63
2023-01-13T13:49:18.742Z,-1.67
2023-01-13T13:52:00.768Z,-1.72
2023-01-13T13:54:27.911Z,-1.76
2023-01-13T13:56:54.535Z,-1.77
2023-01-13T13:59:26.770Z,-1.79
2023-01-13T14:02:01.629Z,-1.81
2023-01-13T14:04:34.415Z,-1.82
2023-01-13T14:07:18.050Z,-1.82
2023-01-13T14:09:47.556Z,-1.86
2023-01-13T14:12:22.632Z,-1.84
2023-01-13T14:14:50.723Z,-1.85
2023-01-13T14:17:18.933Z,-1.86
2023-01-13T14:19:52.853Z,-1.88
2023-01-13T14:22:19.663Z,-1.86
2023-01-13T14:24:51.124Z,-1.85
2023-01-13T14:27:19.275Z,-1.86
2023-01-13T14:29:45.888Z,-1.88
2023-01-13T14:32:19.951Z,-1.91
2023-01-13T14:34:46.889Z,-1.89
2023-01-13T14:37:38.449Z,-1.92
2023-01-13T14:40:06.017Z,-1.89
2023-01-13T14:42:35.472Z,-1.91
2023-01-13T14:45:03.147Z,-1.90
2023-01-13T14:47:33.969Z,-1.89
2023-01-13T14:50:03.871Z,-1.88
2023-01-13T14:52:36.098Z,-1.87
2023-01-13T14:55:19.358Z,-1.88
2023-01-13T14:57:47.073Z,-1.90
2023-01-13T15:00:13.546Z,-1.86
2023-01-13T15:02:58.532Z,-1.82
2023-01-13T15:05:29.824Z,-1.84
2023-01-13T15:08:03.382Z,-1.84
2023-01-13T15:10:33.729Z,-1.80
2023-01-13T15:13:03.972Z,-1.80
2023-01-13T15:15:36.361Z,-1.81
2023-01-13T15:18:12.564Z,-1.80
2023-01-13T15:20:39.743Z,-1.78
2023-01-13T15:23:06.440Z,-1.78
2023-01-13T15:25:35.775Z,-1.76
2023-01-13T15:28:04.783Z,-1.77
2023-01-13T15:30:31.994Z,-1.74
2023-01-13T15:32:59.048Z,-1.75
2023-01-13T15:35:28.346Z,-1.74
2023-01-13T15:37:56.350Z,-1.74
2023-01-13T15:40:30.007Z,-1.71
2023-01-13T15:43:15.407Z,-1.73
2023-01-13T15:46:01.378Z,-1.76
2023-01-13T15:48:33.572Z,-1.74
2023-01-13T15:51:02.523Z,-1.70
2023-01-13T15:53:30.056Z,-1.70
2023-01-13T15:55:58.919Z,-1.69
2023-01-13T15:58:28.406Z,-1.70
2023-01-13T16:00:55.470Z,-1.70
2023-01-13T19:59:06.058Z,-2.28
2023-01-13T20:01:36.106Z,-2.22
2023-01-13T20:04:04.745Z,-2.15
2023-01-13T20:06:34.324Z,-2.11
2023-01-13T20:09:00.933Z,-2.07
2023-01-13T20:11:33.326Z,-2.02
2023-01-13T20:14:01.550Z,-2.00
2023-01-13T20:16:29.421Z,-1.98
2023-01-13T20:18:56.793Z,-1.96
2023-01-13T20:21:23.431Z,-1.95
2023-01-13T20:23:52.119Z,-1.94
2023-01-13T20:26:19.577Z,-1.97
2023-01-13T20:28:47.344Z,-1.95
2023-01-13T20:31:15.583Z,-1.94
2023-01-13T20:33:42.936Z,-1.94
2023-01-13T20:36:31.425Z,-1.95
2023-01-13T20:38:59.672Z,-1.97
2023-01-13T20:41:44.796Z,-1.98
2023-01-13T20:44:12.548Z,-1.97
2023-01-13T20:46:41.466Z,-1.97
2023-01-13T20:49:10.560Z,-1.97
2023-01-13T20:51:37.776Z,-1.95
2023-01-13T20:54:04.542Z,-1.94
2023-01-13T20:56:31.433Z,-1.98
2023-01-13T20:58:58.043Z,-1.94
2023-01-13T21:01:25.024Z,-1.97
2023-01-13T21:03:54.668Z,-1.98
2023-01-13T21:06:21.255Z,-1.98
2023-01-13T21:08:47.797Z,-1.97
2023-01-13T21:11:16.331Z,-1.99
2023-01-13T21:14:01.549Z,-1.98
2023-01-13T21:16:28.129Z,-1.96
2023-01-13T21:19:24.065Z,-1.97
2023-01-13T21:21:50.596Z,-1.97
2023-01-13T21:24:17.167Z,-1.99
2023-01-13T21:26:43.755Z,-1.99
2023-01-13T21:29:10.334Z,-1.96
2023-01-13T21:31:37.383Z,-1.98
2023-01-13T21:34:05.130Z,-1.98
2023-01-13T21:36:31.682Z,-1.95
2023-01-13T21:38:59.309Z,-1.95
2023-01-13T21:41:45.199Z,-1.98
2023-01-13T21:44:37.619Z,-1.98
2023-01-13T21:47:23.601Z,-1.95
2023-01-13T21:49:50.144Z,-1.96
2023-01-13T21:52:16.715Z,-1.96
2023-01-13T21:55:01.735Z,-1.94
2023-01-13T21:57:28.393Z,-1.93
2023-01-13T21:59:54.973Z,-1.94
2023-01-13T22:02:29.121Z,-1.91
2023-01-13T22:04:55.750Z,-1.94
2023-01-13T22:07:22.287Z,-1.92
2023-01-13T22:09:48.853Z,-1.93
2023-01-13T22:12:17.797Z,-1.93
2023-01-13T22:14:44.315Z,-1.91
2023-01-13T22:17:14.412Z,-1.91
2023-01-13T22:19:42.317Z,-1.93
2023-01-13T22:22:14.153Z,-1.95
2023-01-13T22:24:43.443Z,-1.92
2023-01-13T22:27:11.029Z,-1.94
2023-01-13T22:29:37.815Z,-1.91
2023-01-13T22:32:05.339Z,-1.94
2023-01-13T22:34:32.431Z,-1.94
2023-01-13T22:36:59.786Z,-1.94
2023-01-13T22:39:26.566Z,-1.94
2023-01-13T22:41:53.442Z,-1.93
2023-01-13T22:44:21.132Z,-1.98
2023-01-13T22:46:47.854Z,-2.00
2023-01-13T22:49:15.970Z,-2.00
2023-01-13T22:51:42.862Z,-1.98
2023-01-13T22:54:10.316Z,-2.00
2023-01-13T22:56:36.900Z,-1.99
2023-01-13T22:59:05.093Z,-1.99
2023-01-13T23:01:34.638Z,-2.00
2023-01-13T23:04:02.127Z,-2.00
2023-01-13T23:06:31.300Z,-2.00
2023-01-13T23:08:59.013Z,-2.00
2023-01-13T23:11:28.866Z,-1.99
2023-01-13T23:14:04.533Z,-2.03
2023-01-13T23:16:34.991Z,-2.02
2023-01-13T23:19:01.713Z,-2.03
2023-01-13T23:21:30.852Z,-2.01
2023-01-13T23:23:58.852Z,-1.98
2023-01-13T23:26:26.889Z,-1.99
2023-01-13T23:28:53.528Z,-2.00
2023-01-13T23:31:22.124Z,-1.98
2023-01-13T23:33:49.061Z,-1.98
2023-01-13T23:36:21.627Z,-1.96
2023-01-13T23:38:48.189Z,-1.99
2023-01-13T23:41:16.986Z,-2.00
2023-01-13T23:43:43.721Z,-1.98
2023-01-13T23:46:12.699Z,-2.01
2023-01-13T23:48:39.816Z,-2.02
2023-01-13T23:51:08.884Z,-2.00
2023-01-13T23:53:40.240Z,-2.01
2023-01-13T23:56:11.055Z,-2.00
2023-01-13T23:58:37.702Z,-1.99
